Valois, New York
Current Conditions -  °F | °C
As of 2:10 PM on Thursday 23 Oct 2014 (Local Time) from KPEO Reporting Station
Overcast Overcast  
Wind Chill: 53°   Ceiling: 2500
Heat Index: 53°   Visibility: 10mi
Dew Point: 42°   Wind: 10mph
Humidity: 66%   Direction: 340°NNW
Pressure: 29.97"   Gusts: 22mph
Location:  42.4947°N, 76.8774°W
Report Text: KPEO 231810Z AUTO 34009G19KT 10SM BKN025 OVC041 12/06 A2997 RMK AO2 T01170056
Loading
Personal Weather Stations






























Interactive Weather Map
Tropical Storm Tracking
New forecast layout! Learn more

10-Day Weather Forecast

Advertisements
Track Severe Weather on mobile